Time;durP1;ratioP1;P1;durP2;ratioP2;P2;SDS_P1;SDS_P2;PMS_P1;PMS_P2;Temp;Humidity;BMP_temperature;BMP_pressure;BME280_temperature;BME280_humidity;BME280_pressure;Samples;Min_cycle;Max_cycle;Signal;HPM_P1;HPM_P2
2022/01/08 00:00:46;;;;;;;3.30;0.90;;;4.40;99.90;;;;;;5114776;28;20091;-85
2022/01/08 00:03:11;;;;;;;3.03;1.00;;;4.40;99.90;;;;;;5099867;28;20027;-85
2022/01/08 00:05:37;;;;;;;3.07;1.03;;;4.40;99.90;;;;;;5100619;28;20019;-85
2022/01/08 00:08:04;;;;;;;1.23;0.80;;;4.50;99.90;;;;;;5118239;28;20027;-84
2022/01/08 00:10:31;;;;;;;3.67;1.13;;;4.40;99.90;;;;;;5100517;28;20024;-85
2022/01/08 00:13:01;;;;;;;2.60;1.00;;;4.50;99.90;;;;;;5100502;28;20024;-85
2022/01/08 00:15:27;;;;;;;2.97;0.93;;;4.50;99.90;;;;;;5118324;28;20477;-86
2022/01/08 00:17:52;;;;;;;3.20;1.10;;;4.50;99.90;;;;;;5118318;28;20034;-85
2022/01/08 00:20:18;;;;;;;2.70;0.83;;;4.50;99.90;;;;;;5117693;28;20118;-85
2022/01/08 00:22:44;;;;;;;3.27;0.90;;;4.50;99.90;;;;;;5100508;28;20456;-85
2022/01/08 00:25:10;;;;;;;2.70;1.00;;;4.50;99.90;;;;;;5095916;28;20101;-85
2022/01/08 00:27:36;;;;;;;1.60;0.83;;;4.50;99.90;;;;;;5096650;28;20495;-85
2022/01/08 00:30:03;;;;;;;3.13;1.07;;;4.50;99.90;;;;;;5096364;28;20063;-83
2022/01/08 00:32:28;;;;;;;3.73;1.00;;;4.60;99.90;;;;;;5096930;28;20376;-86
2022/01/08 00:34:54;;;;;;;2.47;0.80;;;4.60;99.90;;;;;;5096779;28;20021;-86
2022/01/08 00:37:20;;;;;;;2.87;1.00;;;4.60;99.90;;;;;;5097051;28;20028;-85
2022/01/08 00:39:47;;;;;;;2.83;0.83;;;4.60;99.90;;;;;;5097653;28;20086;-86
2022/01/08 00:42:14;;;;;;;2.93;1.07;;;4.60;99.90;;;;;;5096096;28;20024;-85
2022/01/08 00:44:40;;;;;;;2.63;0.70;;;4.60;99.90;;;;;;5097480;28;20488;-85
2022/01/08 00:47:06;;;;;;;2.67;0.93;;;4.60;99.90;;;;;;5096064;28;20024;-84
2022/01/08 00:49:31;;;;;;;2.20;0.87;;;4.60;99.90;;;;;;5096621;28;20035;-85
2022/01/08 00:51:57;;;;;;;3.10;0.90;;;4.70;99.90;;;;;;5096463;28;20416;-85
2022/01/08 00:54:23;;;;;;;5.00;1.10;;;4.70;99.90;;;;;;5095868;28;20678;-85
2022/01/08 00:56:49;;;;;;;2.00;0.70;;;4.80;99.90;;;;;;5096277;28;20027;-85
2022/01/08 00:59:14;;;;;;;3.33;0.73;;;4.80;99.90;;;;;;5095680;28;20032;-85
2022/01/08 01:01:40;;;;;;;1.60;0.93;;;4.80;99.90;;;;;;5096309;28;20024;-85
2022/01/08 01:04:06;;;;;;;1.07;0.70;;;4.80;99.90;;;;;;5095719;28;20381;-84
2022/01/08 01:06:31;;;;;;;3.27;0.90;;;4.80;99.90;;;;;;5096192;28;20043;-85
2022/01/08 01:08:57;;;;;;;4.00;1.00;;;4.80;99.90;;;;;;5096167;28;20035;-86
2022/01/08 01:11:23;;;;;;;1.07;0.70;;;4.80;99.90;;;;;;5096499;28;20028;-85
2022/01/08 01:13:48;;;;;;;1.87;0.60;;;4.90;99.90;;;;;;5094461;28;20036;-85
2022/01/08 01:16:14;;;;;;;3.13;1.20;;;4.80;99.90;;;;;;5095588;28;20032;-85
2022/01/08 01:18:39;;;;;;;2.67;0.93;;;4.80;99.90;;;;;;5095908;28;20385;-85
2022/01/08 01:21:05;;;;;;;4.10;1.00;;;4.80;99.90;;;;;;5096454;28;20036;-82
2022/01/08 01:23:39;;;;;;;2.73;0.90;;;4.90;99.90;;;;;;5095617;28;20495;-85
2022/01/08 01:26:08;;;;;;;3.10;0.70;;;4.90;99.90;;;;;;5096109;28;20024;-86
2022/01/08 01:28:50;;;;;;;2.00;0.80;;;4.90;99.90;;;;;;5096094;28;20032;-85
2022/01/08 01:42:17;;;;;;;2.13;0.87;;;5.00;99.90;;;;;;5096503;28;20038;-85
2022/01/08 01:47:32;;;;;;;3.73;1.13;;;5.00;99.90;;;;;;5095653;28;20031;-85
2022/01/08 01:49:58;;;;;;;2.70;0.80;;;5.00;99.90;;;;;;5095355;28;20036;-85
2022/01/08 01:52:24;;;;;;;3.17;0.90;;;4.90;99.90;;;;;;5095865;28;20039;-85
2022/01/08 01:54:50;;;;;;;3.23;0.73;;;4.90;99.90;;;;;;5096151;28;20028;-85
2022/01/08 01:57:17;;;;;;;0.87;0.60;;;4.90;99.90;;;;;;5095791;28;20103;-85
2022/01/08 01:59:43;;;;;;;1.33;0.67;;;4.90;99.90;;;;;;5095500;28;20028;-85
2022/01/08 02:02:09;;;;;;;2.27;0.90;;;4.90;99.90;;;;;;5094481;28;20024;-85
2022/01/08 02:04:35;;;;;;;4.80;0.90;;;4.80;99.90;;;;;;5095050;28;20088;-85
2022/01/08 02:07:01;;;;;;;2.80;0.70;;;4.80;99.90;;;;;;5094922;28;20362;-86
2022/01/08 02:09:27;;;;;;;1.70;0.97;;;4.80;99.90;;;;;;5094347;28;20024;-85
2022/01/08 02:12:17;;;;;;;2.73;0.87;;;4.80;99.90;;;;;;5095041;28;20025;-86
2022/01/08 02:14:45;;;;;;;2.33;0.80;;;4.70;99.90;;;;;;5094921;28;20032;-86
2022/01/08 02:17:11;;;;;;;2.80;0.80;;;4.70;99.90;;;;;;5094622;28;20034;-84
2022/01/08 02:19:38;;;;;;;4.27;0.70;;;4.70;99.90;;;;;;5094901;28;20024;-85
2022/01/08 02:22:05;;;;;;;4.23;0.87;;;4.70;99.90;;;;;;5095719;28;20028;-85
2022/01/08 02:24:32;;;;;;;2.97;0.83;;;4.70;99.90;;;;;;5093611;28;20044;-86
2022/01/08 02:26:57;;;;;;;1.53;0.60;;;4.70;99.90;;;;;;5094873;28;20124;-85
2022/01/08 02:29:24;;;;;;;3.10;0.70;;;4.60;99.90;;;;;;5094016;28;20145;-85
2022/01/08 02:32:07;;;;;;;3.17;0.87;;;4.60;99.90;;;;;;5094501;28;20024;-85
2022/01/08 02:34:35;;;;;;;1.67;0.90;;;4.60;99.90;;;;;;5094037;28;20031;-85
2022/01/08 02:37:01;;;;;;;1.57;0.50;;;4.50;99.90;;;;;;5094439;28;20133;-85
2022/01/08 02:39:27;;;;;;;1.43;0.60;;;4.50;99.90;;;;;;5093631;28;20028;-85
2022/01/08 02:41:57;;;;;;;3.20;0.67;;;4.50;99.90;;;;;;5094417;28;20114;-85
2022/01/08 02:44:23;;;;;;;4.30;0.70;;;4.40;99.90;;;;;;5093647;28;20035;-85
2022/01/08 02:46:49;;;;;;;1.37;0.60;;;4.40;99.90;;;;;;5095220;28;20032;-85
2022/01/08 02:49:15;;;;;;;0.60;0.40;;;4.40;99.90;;;;;;5093537;28;20050;-85
2022/01/08 02:51:41;;;;;;;2.87;0.50;;;4.30;99.90;;;;;;5095147;28;20388;-86
2022/01/08 02:54:09;;;;;;;0.63;0.40;;;4.30;99.90;;;;;;5094009;28;20031;-86
2022/01/08 02:56:43;;;;;;;0.87;0.50;;;4.30;99.90;;;;;;5093603;28;20028;-85
2022/01/08 02:59:09;;;;;;;0.50;0.40;;;4.20;99.90;;;;;;5094180;28;20032;-85
2022/01/08 03:01:35;;;;;;;0.40;0.30;;;4.20;99.90;;;;;;5093494;28;20038;-85
2022/01/08 03:04:02;;;;;;;0.63;0.30;;;4.20;99.90;;;;;;5094823;28;20103;-85
2022/01/08 03:06:28;;;;;;;2.43;0.60;;;4.10;99.90;;;;;;5093441;28;20035;-85
2022/01/08 03:08:54;;;;;;;0.50;0.50;;;4.10;99.90;;;;;;5095002;28;20032;-85
2022/01/08 03:11:20;;;;;;;1.33;0.43;;;4.00;99.90;;;;;;5093440;28;20028;-85
2022/01/08 03:13:46;;;;;;;1.13;0.50;;;4.00;99.90;;;;;;5093627;28;20095;-85
2022/01/08 03:16:13;;;;;;;1.73;0.67;;;4.00;99.90;;;;;;5093441;28;20467;-82
2022/01/08 03:18:39;;;;;;;1.17;0.50;;;4.00;99.90;;;;;;5093943;28;20436;-85
2022/01/08 03:21:16;;;;;;;2.13;0.50;;;4.00;99.90;;;;;;5093668;28;20035;-85
2022/01/08 03:23:49;;;;;;;0.40;0.40;;;4.00;99.90;;;;;;5093695;28;20123;-85
2022/01/08 03:26:20;;;;;;;0.73;0.50;;;4.00;99.90;;;;;;5093081;28;20027;-85
2022/01/08 03:28:45;;;;;;;0.87;0.50;;;4.00;99.90;;;;;;5093289;28;20028;-85
2022/01/08 03:31:13;;;;;;;1.47;0.80;;;4.00;99.90;;;;;;5094591;28;20474;-85
2022/01/08 03:33:38;;;;;;;2.10;0.60;;;4.00;99.90;;;;;;5093849;28;20028;-85
2022/01/08 03:36:04;;;;;;;2.40;0.80;;;4.00;99.90;;;;;;5093882;28;20127;-86
2022/01/08 03:38:31;;;;;;;2.60;0.90;;;4.00;99.90;;;;;;5093968;28;20024;-85
2022/01/08 03:40:57;;;;;;;1.40;0.70;;;4.00;99.90;;;;;;5093238;28;20123;-85
2022/01/08 03:43:23;;;;;;;0.57;0.57;;;4.00;99.90;;;;;;5094101;28;20062;-85
2022/01/08 03:45:49;;;;;;;2.57;0.77;;;4.00;99.90;;;;;;5093347;28;20051;-85
2022/01/08 03:48:26;;;;;;;1.37;0.70;;;4.00;99.90;;;;;;5092955;28;20377;-84
2022/01/08 03:50:53;;;;;;;1.37;0.60;;;4.00;99.90;;;;;;5094276;28;20420;-85
2022/01/08 03:53:18;;;;;;;2.77;0.70;;;3.90;99.90;;;;;;5092879;28;20095;-85
2022/01/08 03:55:44;;;;;;;2.53;0.60;;;3.90;99.90;;;;;;5093537;28;20484;-85
2022/01/08 03:58:10;;;;;;;0.80;0.53;;;3.90;99.90;;;;;;5094301;28;20461;-85
2022/01/08 04:00:35;;;;;;;2.27;0.70;;;3.90;99.90;;;;;;5092691;28;20529;-85
2022/01/08 04:03:01;;;;;;;1.27;0.40;;;3.90;99.90;;;;;;5093197;28;20487;-85
2022/01/08 04:05:27;;;;;;;0.70;0.50;;;3.90;99.90;;;;;;5092603;28;20028;-85
2022/01/08 04:07:53;;;;;;;1.10;0.70;;;3.90;99.90;;;;;;5094150;28;20081;-85
2022/01/08 04:10:18;;;;;;;3.50;0.50;;;3.80;99.90;;;;;;5092579;28;20058;-85
2022/01/08 04:12:49;;;;;;;1.20;0.50;;;3.80;99.90;;;;;;5092770;28;20032;-85
2022/01/08 04:17:51;;;;;;;0.73;0.50;;;3.70;99.90;;;;;;5093880;28;20020;-86
2022/01/08 04:20:18;;;;;;;2.20;0.57;;;3.70;99.90;;;;;;5092541;28;20028;-85
2022/01/08 04:22:47;;;;;;;1.20;0.60;;;3.70;99.90;;;;;;5093929;28;20028;-85
2022/01/08 04:25:12;;;;;;;1.70;0.60;;;3.70;99.90;;;;;;5092765;28;20044;-86
2022/01/08 04:27:38;;;;;;;1.10;0.87;;;3.60;99.90;;;;;;5092456;28;20039;-85
2022/01/08 04:30:04;;;;;;;0.77;0.67;;;3.70;99.90;;;;;;5092629;28;20492;-86
2022/01/08 04:32:31;;;;;;;2.60;0.90;;;3.70;99.90;;;;;;5092285;28;20020;-85
2022/01/08 04:34:58;;;;;;;1.60;0.70;;;3.70;99.90;;;;;;5092787;28;20462;-86
2022/01/08 04:37:23;;;;;;;1.50;0.60;;;3.70;99.90;;;;;;5092383;28;20035;-85
2022/01/08 04:39:49;;;;;;;1.73;0.70;;;3.70;99.90;;;;;;5092816;28;20458;-85
2022/01/08 04:42:15;;;;;;;3.17;0.80;;;3.70;99.90;;;;;;5092677;28;20480;-85
2022/01/08 04:44:40;;;;;;;1.27;0.73;;;3.80;99.90;;;;;;5092496;28;20028;-85
2022/01/08 04:47:06;;;;;;;1.57;0.70;;;3.80;99.90;;;;;;5094065;28;20024;-85
2022/01/08 04:49:32;;;;;;;2.53;0.80;;;3.80;99.90;;;;;;5095726;28;20032;-85
2022/01/08 04:51:57;;;;;;;0.70;0.60;;;3.80;99.90;;;;;;5096714;28;20028;-85
2022/01/08 04:54:23;;;;;;;1.77;0.70;;;3.80;99.90;;;;;;5096129;28;20454;-85
2022/01/08 04:56:49;;;;;;;1.53;0.80;;;3.80;99.90;;;;;;5096548;28;20055;-86
2022/01/08 04:59:16;;;;;;;1.63;0.70;;;3.90;99.90;;;;;;5097217;28;20028;-85
2022/01/08 05:01:43;;;;;;;2.57;0.53;;;3.90;99.90;;;;;;5095892;28;20035;-85
2022/01/08 05:04:08;;;;;;;1.80;0.80;;;3.90;99.90;;;;;;5097246;28;20032;-84
2022/01/08 05:06:34;;;;;;;1.73;0.40;;;3.90;99.90;;;;;;5096708;28;20035;-84
2022/01/08 05:09:00;;;;;;;1.40;0.60;;;3.90;99.90;;;;;;5097710;28;20028;-83
2022/01/08 05:11:27;;;;;;;0.50;0.40;;;3.90;99.90;;;;;;5096741;28;20461;-85
2022/01/08 05:13:54;;;;;;;0.50;0.30;;;3.90;99.90;;;;;;5095879;28;20028;-85
2022/01/08 05:16:20;;;;;;;3.90;2.23;;;3.90;99.90;;;;;;5095271;28;20028;-82
2022/01/08 05:18:46;;;;;;;1.87;1.20;;;3.90;99.90;;;;;;5095843;28;20085;-84
2022/01/08 05:21:26;;;;;;;0.40;0.30;;;3.90;99.90;;;;;;5096775;28;20074;-85
2022/01/08 05:23:56;;;;;;;0.37;0.37;;;3.80;99.90;;;;;;5096098;28;20048;-85
2022/01/08 05:26:25;;;;;;;0.20;0.20;;;3.80;99.90;;;;;;5095300;28;20028;-84
2022/01/08 05:28:51;;;;;;;0.30;0.20;;;3.80;99.90;;;;;;5095829;28;20077;-85
2022/01/08 05:31:19;;;;;;;0.93;0.20;;;3.80;99.90;;;;;;5095727;28;20024;-84
2022/01/08 05:33:45;;;;;;;0.40;0.20;;;3.80;99.90;;;;;;5095767;28;20077;-85
2022/01/08 05:36:10;;;;;;;0.93;0.27;;;3.80;99.90;;;;;;5096652;28;20028;-85
2022/01/08 05:38:36;;;;;;;0.33;0.33;;;3.80;99.90;;;;;;5094861;28;20111;-84
2022/01/08 05:41:02;;;;;;;0.87;0.43;;;3.70;99.90;;;;;;5095237;28;20077;-85
2022/01/08 05:43:28;;;;;;;0.57;0.30;;;3.70;99.90;;;;;;5094861;28;20031;-84
2022/01/08 05:45:56;;;;;;;2.87;0.50;;;3.70;99.90;;;;;;5096278;28;20453;-85
2022/01/08 05:48:23;;;;;;;0.63;0.30;;;3.70;99.90;;;;;;5095041;28;20028;-85
2022/01/08 05:50:49;;;;;;;1.17;0.60;;;3.70;99.90;;;;;;5096291;28;20024;-85
2022/01/08 05:53:16;;;;;;;1.00;0.50;;;3.70;99.90;;;;;;5095155;28;20027;-85
2022/01/08 05:55:42;;;;;;;1.07;0.40;;;3.70;99.90;;;;;;5094790;28;20028;-85
2022/01/08 05:58:07;;;;;;;2.30;0.80;;;3.70;99.90;;;;;;5095335;28;20027;-85
2022/01/08 06:00:33;;;;;;;1.20;0.90;;;3.70;99.90;;;;;;5094878;28;20032;-85
2022/01/08 06:02:59;;;;;;;2.13;0.70;;;3.70;99.90;;;;;;5095657;28;20032;-86
2022/01/08 06:05:25;;;;;;;1.37;0.70;;;3.70;99.90;;;;;;5094498;28;20528;-85
2022/01/08 06:07:51;;;;;;;0.57;0.57;;;3.70;99.90;;;;;;5095093;28;20024;-85
2022/01/08 06:10:18;;;;;;;0.63;0.50;;;3.80;99.90;;;;;;5094535;28;20080;-85
2022/01/08 06:12:43;;;;;;;4.13;0.83;;;3.80;99.90;;;;;;5094558;28;20103;-85
2022/01/08 06:15:09;;;;;;;2.30;0.80;;;3.70;99.90;;;;;;5095040;28;20472;-85
2022/01/08 06:17:35;;;;;;;1.77;0.50;;;3.70;99.90;;;;;;5094405;28;20453;-85
2022/01/08 06:20:00;;;;;;;2.03;0.60;;;3.70;99.90;;;;;;5095817;28;20033;-85
2022/01/08 06:22:26;;;;;;;2.20;0.60;;;3.70;99.90;;;;;;5094621;28;20031;-84
2022/01/08 06:24:52;;;;;;;0.93;0.60;;;3.70;99.90;;;;;;5111834;28;20120;-85
2022/01/08 06:27:17;;;;;;;2.03;0.60;;;3.70;99.90;;;;;;5098159;28;20032;-86
2022/01/08 06:29:43;;;;;;;1.13;1.03;;;3.70;99.90;;;;;;5097298;28;20031;-85
2022/01/08 06:32:08;;;;;;;2.47;0.60;;;3.70;99.90;;;;;;5098171;28;20080;-85
2022/01/08 06:34:34;;;;;;;0.90;0.60;;;3.70;99.90;;;;;;5097384;28;20027;-85
2022/01/08 06:37:00;;;;;;;1.17;0.80;;;3.70;99.90;;;;;;5097928;28;20076;-85
2022/01/08 06:39:25;;;;;;;2.90;0.57;;;3.70;99.90;;;;;;5097317;28;20089;-85
2022/01/08 06:41:51;;;;;;;1.67;0.70;;;3.70;99.90;;;;;;5115709;28;20035;-85
2022/01/08 06:44:17;;;;;;;0.90;0.50;;;3.70;99.90;;;;;;5097487;28;20491;-85
2022/01/08 06:46:42;;;;;;;1.17;0.50;;;3.70;99.90;;;;;;5097177;28;20529;-84
2022/01/08 06:49:08;;;;;;;2.70;0.60;;;3.70;99.90;;;;;;5097556;28;20028;-84
2022/01/08 06:51:34;;;;;;;1.17;0.60;;;3.70;99.90;;;;;;5097161;28;20024;-84
2022/01/08 06:54:00;;;;;;;1.37;0.80;;;3.60;99.90;;;;;;5115451;28;20046;-85
2022/01/08 06:56:25;;;;;;;1.23;0.40;;;3.60;99.90;;;;;;5097082;28;20068;-82
2022/01/08 06:58:51;;;;;;;0.87;0.53;;;3.50;99.90;;;;;;5097195;28;20062;-84
2022/01/08 07:01:17;;;;;;;1.10;0.60;;;3.50;99.90;;;;;;5096984;28;20027;-84
2022/01/08 07:03:42;;;;;;;1.40;0.67;;;3.50;99.90;;;;;;5096548;28;20062;-84
2022/01/08 07:06:08;;;;;;;1.00;0.50;;;3.50;99.90;;;;;;5097650;28;20054;-84
2022/01/08 07:08:34;;;;;;;1.20;0.50;;;3.40;99.90;;;;;;5114686;28;20035;-84
2022/01/08 07:10:59;;;;;;;1.30;0.40;;;3.40;99.90;;;;;;5097225;28;20031;-85
2022/01/08 07:13:25;;;;;;;2.30;0.50;;;3.40;99.90;;;;;;5115286;28;20055;-84
2022/01/08 07:15:51;;;;;;;1.43;0.40;;;3.40;99.90;;;;;;5097102;28;20499;-84
2022/01/08 07:18:17;;;;;;;1.10;0.30;;;3.40;99.90;;;;;;5115042;28;20027;-85
2022/01/08 07:20:45;;;;;;;1.10;0.70;;;3.40;99.90;;;;;;5096539;28;20062;-84
2022/01/08 07:23:10;;;;;;;3.13;0.60;;;3.40;99.90;;;;;;5114707;28;20088;-85
2022/01/08 07:25:36;;;;;;;1.73;0.97;;;3.40;99.90;;;;;;5096520;28;20093;-84
2022/01/08 07:28:02;;;;;;;2.17;0.63;;;3.40;99.90;;;;;;5097138;28;20479;-84
2022/01/08 07:30:27;;;;;;;4.63;0.83;;;3.50;99.90;;;;;;5114713;28;20081;-84
2022/01/08 07:32:53;;;;;;;2.00;0.50;;;3.40;99.90;;;;;;5097160;28;20115;-84
2022/01/08 07:35:22;;;;;;;1.97;0.77;;;3.40;99.90;;;;;;5114696;28;20107;-84
2022/01/08 07:37:48;;;;;;;0.90;0.50;;;3.50;99.90;;;;;;5096442;28;20296;-85
2022/01/08 07:40:14;;;;;;;1.13;0.50;;;3.50;99.90;;;;;;5114640;28;20384;-84
2022/01/08 07:42:40;;;;;;;1.73;0.67;;;3.40;99.90;;;;;;5114331;28;20030;-84
2022/01/08 07:45:08;;;;;;;2.70;0.70;;;3.50;99.90;;;;;;5114518;28;20042;-84
2022/01/08 07:47:34;;;;;;;3.37;0.70;;;3.40;99.90;;;;;;5095873;28;20077;-84
2022/01/08 07:50:00;;;;;;;1.00;0.50;;;3.40;99.90;;;;;;5097182;28;20030;-84
2022/01/08 07:52:25;;;;;;;1.10;0.50;;;3.50;99.90;;;;;;5097012;28;20123;-84
2022/01/08 07:54:51;;;;;;;1.33;0.80;;;3.50;99.90;;;;;;5113944;28;20045;-84
2022/01/08 07:57:17;;;;;;;2.20;0.70;;;3.50;99.90;;;;;;5096611;28;20027;-84
2022/01/08 07:59:42;;;;;;;1.00;0.67;;;3.50;99.90;;;;;;5114178;28;20032;-84
2022/01/08 08:02:09;;;;;;;2.07;0.73;;;3.50;99.90;;;;;;5096576;28;20054;-83
2022/01/08 08:04:35;;;;;;;2.30;0.80;;;3.50;99.90;;;;;;5095980;28;20024;-82
2022/01/08 08:07:00;;;;;;;2.27;0.60;;;3.60;99.90;;;;;;5096540;28;20593;-82
2022/01/08 08:09:26;;;;;;;3.00;0.70;;;3.60;99.90;;;;;;5096432;28;20031;-83
2022/01/08 08:11:51;;;;;;;3.23;0.90;;;3.50;99.90;;;;;;5095971;28;20127;-84
2022/01/08 08:14:17;;;;;;;1.87;0.93;;;3.50;99.90;;;;;;5115504;28;20102;-84
2022/01/08 08:16:43;;;;;;;3.07;1.07;;;3.60;99.90;;;;;;5114605;28;20028;-84
2022/01/08 08:19:08;;;;;;;3.37;0.93;;;3.50;99.90;;;;;;5096117;28;20089;-85
2022/01/08 08:21:34;;;;;;;2.50;1.10;;;3.50;99.90;;;;;;5095666;28;20118;-84
2022/01/08 08:24:03;;;;;;;6.47;1.40;;;3.50;99.90;;;;;;5099031;28;20047;-84
2022/01/08 08:26:29;;;;;;;3.50;1.20;;;3.60;99.90;;;;;;5100228;28;20456;-84
2022/01/08 08:28:54;;;;;;;4.00;1.47;;;3.50;99.90;;;;;;5099821;28;20062;-83
2022/01/08 08:31:20;;;;;;;2.87;1.20;;;3.60;99.90;;;;;;5100272;28;20019;-84
2022/01/08 08:33:46;;;;;;;5.27;1.60;;;3.60;99.90;;;;;;5117789;28;20028;-83
2022/01/08 08:36:11;;;;;;;3.27;1.30;;;3.60;99.90;;;;;;5118230;28;20024;-84
2022/01/08 08:38:37;;;;;;;1.90;1.20;;;3.60;99.90;;;;;;5117684;28;20047;-84
2022/01/08 08:41:03;;;;;;;1.83;1.03;;;3.60;99.90;;;;;;5099915;28;20306;-83
2022/01/08 08:43:28;;;;;;;6.13;1.47;;;3.60;99.90;;;;;;5100244;28;20080;-84
2022/01/08 08:45:54;;;;;;;4.43;1.40;;;3.60;99.90;;;;;;5117416;28;20468;-85
2022/01/08 08:48:20;;;;;;;5.77;1.30;;;3.60;99.90;;;;;;5099955;28;20535;-84
2022/01/08 08:50:45;;;;;;;2.97;1.30;;;3.60;99.90;;;;;;5099407;28;20095;-84
2022/01/08 08:53:11;;;;;;;3.67;1.67;;;3.70;99.90;;;;;;5099945;28;20427;-84
2022/01/08 08:55:37;;;;;;;6.33;2.20;;;3.70;99.90;;;;;;5099169;28;20059;-84
2022/01/08 08:58:03;;;;;;;4.27;1.67;;;3.60;99.90;;;;;;5099559;28;20077;-84
2022/01/08 09:00:28;;;;;;;4.50;1.50;;;3.60;99.90;;;;;;5099747;28;20058;-84
2022/01/08 09:02:54;;;;;;;5.37;1.50;;;3.70;99.90;;;;;;5117278;28;20055;-84
2022/01/08 09:05:20;;;;;;;5.47;1.50;;;3.70;99.90;;;;;;5099729;28;20019;-84
2022/01/08 09:07:45;;;;;;;5.37;1.80;;;3.70;99.90;;;;;;5099063;28;20023;-83
2022/01/08 09:10:12;;;;;;;3.30;1.47;;;3.80;99.90;;;;;;5117707;28;20103;-83
2022/01/08 09:12:40;;;;;;;4.80;1.53;;;3.70;99.90;;;;;;5098893;28;20023;-83
2022/01/08 09:15:07;;;;;;;4.40;1.73;;;3.80;99.90;;;;;;5099264;28;20491;-83
2022/01/08 09:17:34;;;;;;;7.93;1.70;;;3.80;99.90;;;;;;5099576;28;20384;-82
2022/01/08 09:20:00;;;;;;;4.37;1.70;;;3.90;99.90;;;;;;5099186;28;20055;-83
2022/01/08 09:22:26;;;;;;;3.37;1.53;;;3.90;99.90;;;;;;5117546;28;20024;-83
2022/01/08 09:24:54;;;;;;;2.70;1.27;;;3.90;99.90;;;;;;5098717;28;20472;-83
2022/01/08 09:27:20;;;;;;;6.20;1.60;;;3.90;99.90;;;;;;5099279;28;20031;-83
2022/01/08 09:29:46;;;;;;;2.80;1.50;;;3.90;99.90;;;;;;5116785;28;20072;-83
2022/01/08 09:32:11;;;;;;;8.00;1.83;;;3.80;99.90;;;;;;5116858;28;20027;-84
2022/01/08 09:34:37;;;;;;;5.10;1.47;;;3.80;99.90;;;;;;5097248;28;20028;-83
2022/01/08 09:37:06;;;;;;;5.97;1.67;;;3.80;99.90;;;;;;5117003;28;20034;-86
2022/01/08 09:39:32;;;;;;;4.17;1.50;;;3.90;99.90;;;;;;5098603;28;20118;-83
2022/01/08 09:41:58;;;;;;;3.07;1.40;;;3.90;99.90;;;;;;5098335;28;20066;-83
2022/01/08 09:44:24;;;;;;;4.37;1.37;;;3.90;99.90;;;;;;5117070;28;20031;-83
2022/01/08 09:46:53;;;;;;;5.03;1.43;;;3.90;99.90;;;;;;5098232;28;20551;-84
2022/01/08 09:49:19;;;;;;;3.90;1.40;;;3.90;99.90;;;;;;5098868;28;20027;-84
2022/01/08 09:51:44;;;;;;;4.70;1.20;;;3.90;99.90;;;;;;5119981;28;20031;-84
2022/01/08 09:54:10;;;;;;;3.73;1.20;;;3.80;99.90;;;;;;5098692;28;20023;-84
2022/01/08 09:56:36;;;;;;;3.43;1.30;;;3.80;99.90;;;;;;5116323;28;20453;-81
2022/01/08 09:59:02;;;;;;;4.23;1.23;;;3.80;99.90;;;;;;5098070;28;20484;-84
2022/01/08 10:01:34;;;;;;;7.80;1.30;;;3.90;99.90;;;;;;5098508;28;20027;-84
2022/01/08 10:04:00;;;;;;;;;;;3.90;99.90;;;;;;5097940;28;20023;-84
2022/01/08 10:06:28;;;;;;;4.87;1.13;;;4.00;99.90;;;;;;5116251;28;19904;-84
2022/01/08 10:08:54;;;;;;;6.27;1.20;;;4.00;99.90;;;;;;5097691;28;20077;-84
2022/01/08 10:11:21;;;;;;;3.47;1.07;;;4.00;99.90;;;;;;5098489;28;20099;-84
2022/01/08 10:13:51;;;;;;;3.40;1.37;;;4.10;99.90;;;;;;5097803;28;20024;-84
2022/01/08 10:19:15;;;;;;;3.57;1.00;;;4.20;99.90;;;;;;5116008;28;20046;-84
2022/01/08 10:21:43;;;;;;;3.77;1.17;;;4.10;99.90;;;;;;5097564;28;20089;-83
2022/01/08 10:24:10;;;;;;;3.80;1.30;;;4.20;99.90;;;;;;5097701;28;20086;-84
2022/01/08 10:26:38;;;;;;;2.57;1.00;;;4.20;99.90;;;;;;5098031;28;20030;-84
2022/01/08 10:29:14;;;;;;;5.47;1.10;;;4.20;99.90;;;;;;5097777;28;20038;-84
2022/01/08 10:31:41;;;;;;;7.07;1.57;;;4.20;99.90;;;;;;5115399;28;20030;-84
2022/01/08 10:34:08;;;;;;;2.47;1.10;;;4.20;99.90;;;;;;5097812;28;20469;-84
2022/01/08 10:36:47;;;;;;;3.97;1.17;;;4.30;99.90;;;;;;5097709;28;20062;-84
2022/01/08 10:39:20;;;;;;;2.40;1.13;;;4.30;99.90;;;;;;5097415;28;20057;-84
2022/01/08 10:41:49;;;;;;;2.70;1.50;;;4.30;99.90;;;;;;5097149;28;20476;-85
2022/01/08 10:44:18;;;;;;;4.60;1.67;;;4.30;99.90;;;;;;5097498;28;20023;-86
2022/01/08 10:47:05;;;;;;;4.23;1.60;;;4.30;99.90;;;;;;5114732;28;20486;-86
2022/01/08 10:50:07;;;;;;;3.00;1.20;;;4.20;99.90;;;;;;5097221;28;20035;-86
2022/01/08 10:52:44;;;;;;;2.80;1.50;;;4.30;99.90;;;;;;5042473;28;20071;-86
2022/01/08 10:55:10;;;;;;;5.43;1.60;;;4.40;99.90;;;;;;5115450;28;20023;-85
2022/01/08 10:57:41;;;;;;;3.40;1.43;;;4.40;99.90;;;;;;5097393;28;20034;-85
2022/01/08 11:00:11;;;;;;;3.80;1.23;;;4.40;99.90;;;;;;5097394;28;20032;-85
2022/01/08 11:02:38;;;;;;;4.83;1.50;;;4.30;99.90;;;;;;5097299;28;20028;-84
2022/01/08 11:05:08;;;;;;;3.40;1.43;;;4.30;99.90;;;;;;5096606;28;20027;-85
2022/01/08 11:07:35;;;;;;;4.97;1.73;;;4.30;99.90;;;;;;5097238;28;20024;-85
2022/01/08 11:10:07;;;;;;;8.47;1.57;;;4.30;99.90;;;;;;5096627;28;20031;-86
2022/01/08 11:12:38;;;;;;;3.15;1.40;;;4.20;99.90;;;;;;5096946;28;20027;-85
2022/01/08 11:17:51;;;;;;;5.93;1.50;;;4.20;99.90;;;;;;5115001;28;20031;-84
2022/01/08 11:20:22;;;;;;;4.30;2.00;;;4.20;99.90;;;;;;5096714;28;20039;-84
2022/01/08 11:22:50;;;;;;;3.25;1.48;;;4.20;99.90;;;;;;5114491;28;20055;-84
2022/01/08 11:25:18;;;;;;;6.17;2.13;;;4.20;99.90;;;;;;5096219;28;20047;-85
2022/01/08 11:28:05;;;;;;;4.23;1.73;;;4.20;99.90;;;;;;5096356;28;20538;-85
2022/01/08 11:30:33;;;;;;;9.27;1.80;;;4.20;99.90;;;;;;5096876;28;20028;-85
2022/01/08 11:33:05;;;;;;;4.80;1.40;;;4.10;99.90;;;;;;5114281;28;20027;-85
2022/01/08 11:35:32;;;;;;;4.57;1.60;;;4.20;99.90;;;;;;5096756;28;20529;-85
2022/01/08 11:38:02;;;;;;;4.77;1.50;;;4.20;99.90;;;;;;5113979;28;20072;-86
2022/01/08 11:40:30;;;;;;;2.60;1.40;;;4.20;99.90;;;;;;5096722;28;20060;-86
2022/01/08 11:42:59;;;;;;;2.10;1.43;;;4.20;99.90;;;;;;5095988;28;20114;-86
2022/01/08 11:45:29;;;;;;;3.40;1.53;;;4.20;99.90;;;;;;5096640;28;20038;-85
2022/01/08 11:47:58;;;;;;;5.53;1.70;;;4.20;99.90;;;;;;5096211;28;20384;-84
2022/01/08 11:50:26;;;;;;;2.93;1.40;;;4.20;99.90;;;;;;5114519;28;20032;-86
2022/01/08 11:53:16;;;;;;;3.40;1.30;;;4.20;99.90;;;;;;5096076;28;20430;-86
2022/01/08 11:55:47;;;;;;;3.30;1.17;;;4.30;99.90;;;;;;5096807;28;20027;-84
2022/01/08 11:58:26;;;;;;;2.20;1.10;;;4.30;99.90;;;;;;5095913;28;20091;-84
2022/01/08 12:01:09;;;;;;;3.83;1.40;;;4.30;99.90;;;;;;5095812;28;20040;-84
2022/01/08 12:03:39;;;;;;;5.53;1.37;;;4.30;99.90;;;;;;5096351;28;20027;-84
2022/01/08 12:09:22;;;;;;;4.43;1.83;;;4.30;99.90;;;;;;5114235;28;20028;-84
2022/01/08 12:11:48;;;;;;;4.87;1.63;;;4.30;99.90;;;;;;5113274;28;20062;-83
2022/01/08 12:14:23;;;;;;;4.03;1.50;;;4.30;99.90;;;;;;5096095;28;20073;-84
2022/01/08 12:16:50;;;;;;;4.67;1.60;;;4.40;99.90;;;;;;5113724;28;20055;-84
2022/01/08 12:19:35;;;;;;;4.13;1.43;;;4.50;99.90;;;;;;5095971;28;20075;-83
2022/01/08 12:22:21;;;;;;;3.77;1.50;;;4.50;99.90;;;;;;5095646;28;20024;-84
2022/01/08 12:24:49;;;;;;;2.33;1.50;;;4.50;99.90;;;;;;5097576;28;20044;-85
2022/01/08 12:27:46;;;;;;;4.83;1.40;;;4.50;99.90;;;;;;5098792;28;20020;-84
2022/01/08 12:30:17;;;;;;;3.80;1.77;;;4.50;99.90;;;;;;5091707;28;20036;-84
2022/01/08 12:32:48;;;;;;;5.90;1.88;;;4.70;99.90;;;;;;5098081;28;20028;-84
2022/01/08 12:35:20;;;;;;;3.73;1.63;;;4.70;99.90;;;;;;5098452;28;20057;-84
2022/01/08 12:37:48;;;;;;;3.80;1.70;;;4.80;99.90;;;;;;5097784;28;20028;-83
2022/01/08 12:40:40;;;;;;;4.17;1.90;;;4.80;99.90;;;;;;5097679;28;20118;-85
2022/01/08 12:43:31;;;;;;;4.13;1.80;;;4.80;99.90;;;;;;5115094;28;20027;-84
2022/01/08 12:46:24;;;;;;;2.47;1.52;;;4.80;99.90;;;;;;5083537;28;20032;-84
2022/01/08 12:49:05;;;;;;;3.70;1.60;;;4.80;99.90;;;;;;5115079;28;20499;-85
2022/01/08 12:51:49;;;;;;;3.53;1.40;;;4.80;99.90;;;;;;5097773;28;20027;-84
2022/01/08 12:54:21;;;;;;;4.87;1.60;;;4.70;99.90;;;;;;5097428;28;20114;-84
2022/01/08 12:56:57;;;;;;;2.38;1.10;;;4.80;99.90;;;;;;5097511;28;20026;-82
2022/01/08 12:59:30;;;;;;;3.57;1.30;;;4.90;99.90;;;;;;5097513;28;20032;-84
2022/01/08 13:01:57;;;;;;;1.53;1.07;;;4.90;99.90;;;;;;5097106;28;20030;-84
2022/01/08 13:04:23;;;;;;;3.00;1.43;;;4.90;99.30;;;;;;5115273;28;20085;-84
2022/01/08 13:06:49;;;;;;;3.20;1.30;;;5.00;99.40;;;;;;5096859;28;20036;-84
2022/01/08 13:09:16;;;;;;;1.73;0.90;;;4.90;99.40;;;;;;5098943;28;20027;-84
2022/01/08 13:11:44;;;;;;;2.13;1.07;;;5.00;99.60;;;;;;5101448;28;20024;-84
2022/01/08 13:14:15;;;;;;;5.37;0.93;;;4.90;98.40;;;;;;5100385;28;20035;-85
2022/01/08 13:16:42;;;;;;;6.00;0.93;;;5.00;98.90;;;;;;5100731;28;20079;-84
2022/01/08 13:19:23;;;;;;;1.87;1.00;;;5.00;98.70;;;;;;5100042;28;20516;-84
2022/01/08 13:21:53;;;;;;;3.88;0.90;;;5.10;98.50;;;;;;5100752;28;20039;-83
2022/01/08 13:24:25;;;;;;;1.33;1.03;;;5.10;98.10;;;;;;5097177;28;20052;-85
2022/01/08 13:26:57;;;;;;;;;;;5.20;97.80;;;;;;5097265;28;20381;-85